createdAt,value
2022-08-03T00:02:22.317Z,23.76
2022-08-03T00:04:53.172Z,23.58
2022-08-03T00:07:23.787Z,23.33
2022-08-03T00:09:54.655Z,23.49
2022-08-03T00:12:24.502Z,23.56
2022-08-03T00:14:56.496Z,23.60
2022-08-03T00:17:27.768Z,23.42
2022-08-03T00:19:59.188Z,23.57
2022-08-03T00:22:28.892Z,23.27
2022-08-03T00:25:01.013Z,23.05
2022-08-03T00:27:32.692Z,23.15
2022-08-03T00:30:06.577Z,23.04
2022-08-03T00:32:37.220Z,23.05
2022-08-03T00:35:32.599Z,23.12
2022-08-03T00:38:02.403Z,22.90
2022-08-03T00:40:34.938Z,23.10
2022-08-03T00:43:06.289Z,22.75
2022-08-03T00:45:40.877Z,22.93
2022-08-03T00:48:19.743Z,23.11
2022-08-03T00:51:02.676Z,22.55
2022-08-03T00:53:32.787Z,22.80
2022-08-03T00:56:09.439Z,22.95
2022-08-03T00:58:38.606Z,22.78
2022-08-03T01:01:09.952Z,22.76
2022-08-03T01:03:39.759Z,22.77
2022-08-03T01:06:21.531Z,22.63
2022-08-03T01:08:59.339Z,22.67
2022-08-03T01:12:01.206Z,22.26
2022-08-03T01:17:30.165Z,22.81
2022-08-03T01:20:08.305Z,22.68
2022-08-03T01:23:13.988Z,22.32
2022-08-03T01:26:01.267Z,22.54
2022-08-03T01:28:40.546Z,22.37
2022-08-03T01:31:13.075Z,22.27
2022-08-03T01:33:53.197Z,22.37
2022-08-03T01:36:28.116Z,22.56
2022-08-03T01:39:04.315Z,22.49
2022-08-03T01:41:40.906Z,22.41
2022-08-03T01:44:29.090Z,22.13
2022-08-03T01:47:03.560Z,21.83
2022-08-03T01:49:40.157Z,21.99
2022-08-03T01:52:12.365Z,21.85
2022-08-03T01:54:50.314Z,22.00
2022-08-03T01:57:22.674Z,21.89
2022-08-03T01:59:57.885Z,21.94
2022-08-03T02:02:34.611Z,21.76
2022-08-03T02:05:11.159Z,21.80
2022-08-03T02:07:47.285Z,21.67
2022-08-03T02:10:35.416Z,21.72
2022-08-03T02:13:08.046Z,21.81
2022-08-03T02:15:40.538Z,21.68
2022-08-03T02:18:12.351Z,21.68
2022-08-03T02:20:45.931Z,21.35
2022-08-03T02:23:20.744Z,20.99
2022-08-03T02:25:56.916Z,21.33
2022-08-03T02:28:35.477Z,21.25
2022-08-03T02:31:15.158Z,21.35
2022-08-03T02:33:58.030Z,21.56
2022-08-03T02:36:32.341Z,21.48
2022-08-03T02:39:06.124Z,21.41
2022-08-03T02:41:43.662Z,21.54
2022-08-03T02:44:14.938Z,21.45
2022-08-03T02:46:48.799Z,21.26
2022-08-03T02:49:40.779Z,21.43
2022-08-03T02:52:13.093Z,21.39
2022-08-03T02:54:46.090Z,21.27
2022-08-03T02:57:21.635Z,21.23
2022-08-03T02:59:54.376Z,21.39
2022-08-03T03:02:29.326Z,21.40
2022-08-03T03:05:52.241Z,21.18
2022-08-03T03:07:53.303Z,21.21
2022-08-03T03:10:27.357Z,21.30
2022-08-03T03:13:00.472Z,21.16
2022-08-03T03:15:31.792Z,21.31
2022-08-03T03:18:02.598Z,21.28
2022-08-03T03:20:33.208Z,20.97
2022-08-03T03:23:04.065Z,20.85
2022-08-03T03:25:34.228Z,20.89
2022-08-03T03:28:07.016Z,20.89
2022-08-03T03:30:39.628Z,20.82
2022-08-03T03:33:11.141Z,20.91
2022-08-03T03:35:43.126Z,21.05
2022-08-03T03:38:16.246Z,21.06
2022-08-03T03:40:46.959Z,21.18
2022-08-03T03:43:21.358Z,21.18
2022-08-03T03:45:53.668Z,21.02
2022-08-03T03:48:25.684Z,20.92
2022-08-03T03:50:55.653Z,20.91
2022-08-03T03:53:27.274Z,20.97
2022-08-03T03:56:02.897Z,20.96
2022-08-03T03:58:35.521Z,21.09
2022-08-03T04:01:05.028Z,21.17
2022-08-03T04:03:33.642Z,21.19
2022-08-03T04:06:20.225Z,21.26
2022-08-03T04:09:00.917Z,21.04
2022-08-03T04:11:36.286Z,21.26
2022-08-03T04:14:08.738Z,21.00
2022-08-03T04:16:43.466Z,21.05
2022-08-03T04:19:19.795Z,21.24
2022-08-03T04:21:53.169Z,21.19
2022-08-03T04:24:29.071Z,21.35
2022-08-03T04:26:58.400Z,21.57
2022-08-03T04:29:29.714Z,21.65
2022-08-03T04:31:59.001Z,21.74
2022-08-03T04:34:28.726Z,21.85
2022-08-03T04:37:00.776Z,22.00
2022-08-03T04:39:34.497Z,22.13
2022-08-03T04:42:24.124Z,22.18
2022-08-03T04:45:01.062Z,22.59
2022-08-03T04:47:32.839Z,22.34
2022-08-03T04:50:04.933Z,22.58
2022-08-03T04:52:35.627Z,22.50
2022-08-03T04:55:05.590Z,22.84
2022-08-03T04:57:35.126Z,22.65
2022-08-03T05:00:05.305Z,22.94
2022-08-03T05:02:35.314Z,23.00
2022-08-03T05:05:04.383Z,22.87
2022-08-03T05:07:36.197Z,23.29
2022-08-03T05:10:16.150Z,23.40
2022-08-03T05:12:46.453Z,23.72
2022-08-03T05:15:15.352Z,23.79
2022-08-03T05:17:43.513Z,23.89
2022-08-03T05:20:12.750Z,24.06
2022-08-03T05:22:41.362Z,24.25
2022-08-03T05:25:10.011Z,24.50
2022-08-03T05:27:46.206Z,24.51
2022-08-03T05:30:30.561Z,24.49
2022-08-03T05:33:05.858Z,24.61
2022-08-03T05:36:01.701Z,24.77
2022-08-03T05:38:28.767Z,24.73
2022-08-03T05:41:22.198Z,25.18
2022-08-03T05:43:54.818Z,25.23
2022-08-03T05:46:23.263Z,25.31
2022-08-03T05:48:54.113Z,25.29
2022-08-03T05:54:55.920Z,25.49
2022-08-03T06:01:07.886Z,25.86
2022-08-03T06:10:34.132Z,26.16
2022-08-03T06:12:49.598Z,26.34
2022-08-03T06:15:19.293Z,26.42
2022-08-03T06:17:48.762Z,26.57
2022-08-03T06:20:21.390Z,26.79
2022-08-03T06:23:00.914Z,26.70
2022-08-03T06:25:31.215Z,26.92
2022-08-03T06:28:00.622Z,27.03
2022-08-03T06:30:31.495Z,26.93
2022-08-03T06:33:00.839Z,26.86
2022-08-03T06:35:29.299Z,27.08
2022-08-03T06:37:57.905Z,27.25
2022-08-03T06:40:34.654Z,27.30
2022-08-03T06:43:04.284Z,27.58
2022-08-03T06:45:35.536Z,27.49
2022-08-03T06:48:13.164Z,27.61
2022-08-03T06:50:42.554Z,27.83
2022-08-03T06:53:18.145Z,27.86
2022-08-03T06:55:54.424Z,28.28
2022-08-03T06:59:02.581Z,28.04
2022-08-03T07:08:42.267Z,28.33
2022-08-03T07:11:12.052Z,28.35
2022-08-03T07:13:41.381Z,28.48
2022-08-03T07:16:09.701Z,28.59
2022-08-03T07:18:44.720Z,28.37
2022-08-03T07:21:44.331Z,28.46
2022-08-03T07:24:22.097Z,28.95
2022-08-03T07:26:53.267Z,29.05
2022-08-03T07:29:21.303Z,29.03
2022-08-03T07:31:49.771Z,29.19
2022-08-03T07:34:19.749Z,29.14
2022-08-03T07:36:49.586Z,29.28
2022-08-03T07:39:23.325Z,29.28
2022-08-03T07:41:52.041Z,29.49
2022-08-03T07:44:19.987Z,29.81
2022-08-03T07:46:48.629Z,29.76
2022-08-03T07:49:18.259Z,29.92
2022-08-03T07:52:06.744Z,30.07
2022-08-03T07:54:37.700Z,30.08
2022-08-03T07:57:05.877Z,30.14
2022-08-03T07:59:56.393Z,30.04
2022-08-03T08:02:23.945Z,30.23
2022-08-03T08:04:53.111Z,30.29
2022-08-03T08:07:21.825Z,30.31
2022-08-03T08:09:50.110Z,30.48
2022-08-03T08:12:19.141Z,30.35
2022-08-03T08:14:47.359Z,30.47
2022-08-03T08:17:15.935Z,30.79
2022-08-03T08:19:51.426Z,30.68
2022-08-03T08:22:25.880Z,30.91
2022-08-03T08:25:01.242Z,30.93
2022-08-03T08:28:29.133Z,31.03
2022-08-03T08:30:22.657Z,30.41
2022-08-03T08:32:51.208Z,30.73
2022-08-03T08:35:19.927Z,30.72
2022-08-03T08:37:50.717Z,30.89
2022-08-03T08:40:23.042Z,31.04
2022-08-03T08:42:58.805Z,31.17
2022-08-03T08:45:28.158Z,31.21
2022-08-03T08:48:02.562Z,31.54
2022-08-03T08:50:34.011Z,31.56
2022-08-03T08:53:03.892Z,31.50
2022-08-03T08:55:59.495Z,31.43
2022-08-03T08:58:23.675Z,31.53
2022-08-03T09:00:51.567Z,31.40
2022-08-03T09:03:29.154Z,31.57
2022-08-03T09:06:02.546Z,31.66
2022-08-03T09:08:31.626Z,32.14
2022-08-03T09:11:00.904Z,32.18
2022-08-03T09:13:30.503Z,32.17
2022-08-03T09:16:12.337Z,32.29
2022-08-03T09:18:43.367Z,32.59
2022-08-03T09:21:32.919Z,32.50
2022-08-03T09:24:06.150Z,32.44
2022-08-03T09:26:37.318Z,32.78
2022-08-03T09:29:14.969Z,32.96
2022-08-03T09:31:45.572Z,32.97
2022-08-03T09:34:16.600Z,33.19
2022-08-03T09:36:47.103Z,33.27
2022-08-03T09:39:41.561Z,33.11
2022-08-03T09:42:23.896Z,33.32
2022-08-03T09:44:53.690Z,33.75
2022-08-03T09:47:29.663Z,33.73
2022-08-03T09:50:02.422Z,33.86
2022-08-03T09:52:50.019Z,33.76
2022-08-03T09:56:02.374Z,33.71
2022-08-03T09:58:10.869Z,33.49
2022-08-03T10:01:24.210Z,33.49
2022-08-03T10:04:02.907Z,33.37
2022-08-03T10:06:32.808Z,33.27
2022-08-03T10:09:12.197Z,33.41
2022-08-03T10:11:42.300Z,33.73
2022-08-03T10:14:19.151Z,33.80
2022-08-03T10:16:49.070Z,33.79
2022-08-03T10:19:17.474Z,34.16
2022-08-03T10:21:57.732Z,34.21
2022-08-03T10:24:34.077Z,34.29
2022-08-03T10:27:04.130Z,34.32
2022-08-03T10:29:39.853Z,33.88
2022-08-03T10:32:44.504Z,33.93
2022-08-03T10:35:21.053Z,33.42
2022-08-03T10:38:02.299Z,34.06
2022-08-03T10:40:47.964Z,34.18
2022-08-03T10:43:23.177Z,34.30
2022-08-03T10:45:52.435Z,34.13
2022-08-03T10:48:21.288Z,34.14
2022-08-03T10:50:49.961Z,34.48
2022-08-03T10:53:38.193Z,34.56
2022-08-03T10:56:51.797Z,34.64
2022-08-03T10:59:27.742Z,34.95
2022-08-03T11:01:58.990Z,34.95
2022-08-03T11:04:30.201Z,35.10
2022-08-03T11:07:20.702Z,34.84
2022-08-03T11:09:54.788Z,35.36
2022-08-03T11:12:31.398Z,35.02
2022-08-03T11:15:06.760Z,35.28
2022-08-03T11:17:55.710Z,35.64
2022-08-03T11:21:08.302Z,35.66
2022-08-03T11:24:04.989Z,35.74
2022-08-03T11:26:34.943Z,35.56
2022-08-03T11:29:30.409Z,35.45
2022-08-03T11:31:59.127Z,35.32
2022-08-03T11:34:27.743Z,35.26
2022-08-03T11:37:22.867Z,35.38
2022-08-03T11:39:54.879Z,35.71
2022-08-03T11:42:23.203Z,35.93
2022-08-03T11:44:52.438Z,35.53
2022-08-03T11:47:21.892Z,35.48
2022-08-03T11:49:51.429Z,35.38
2022-08-03T11:52:27.129Z,35.49
2022-08-03T11:54:57.587Z,35.29
2022-08-03T11:59:17.833Z,35.36
2022-08-03T12:00:33.650Z,35.01
2022-08-03T12:03:08.192Z,34.88
2022-08-03T12:05:51.856Z,34.86
2022-08-03T12:08:32.485Z,35.16
2022-08-03T12:11:04.596Z,35.21
2022-08-03T12:14:33.076Z,35.32
2022-08-03T12:16:25.847Z,35.10
2022-08-03T12:19:05.664Z,35.20
2022-08-03T12:21:34.755Z,35.28
2022-08-03T12:24:04.855Z,35.18
2022-08-03T12:26:58.926Z,34.64
2022-08-03T12:29:27.985Z,34.47
2022-08-03T12:31:56.507Z,34.05
2022-08-03T12:34:25.206Z,33.94
2022-08-03T12:37:03.003Z,33.86
2022-08-03T12:40:03.008Z,34.37
2022-08-03T12:42:38.738Z,34.56
2022-08-03T12:45:22.589Z,34.90
2022-08-03T12:47:57.528Z,35.27
2022-08-03T12:50:33.751Z,34.98
2022-08-03T12:53:07.848Z,35.35
2022-08-03T12:55:40.064Z,35.36
2022-08-03T12:58:36.261Z,35.24
2022-08-03T13:01:09.480Z,35.25
2022-08-03T13:03:50.495Z,35.20
2022-08-03T13:06:20.585Z,35.66
2022-08-03T13:08:50.067Z,36.20
2022-08-03T13:11:55.523Z,36.64
2022-08-03T13:14:20.206Z,36.80
2022-08-03T13:16:53.460Z,36.91
2022-08-03T13:19:51.059Z,37.13
2022-08-03T13:22:38.748Z,37.53
2022-08-03T13:25:07.342Z,37.60
2022-08-03T13:28:09.863Z,37.56
2022-08-03T13:30:30.249Z,37.46
2022-08-03T13:33:00.846Z,37.26
2022-08-03T13:35:29.053Z,37.02
2022-08-03T13:38:00.338Z,37.00
2022-08-03T13:40:41.408Z,37.17
2022-08-03T13:43:09.644Z,36.94
2022-08-03T13:45:37.867Z,37.00
2022-08-03T13:48:06.007Z,36.61
2022-08-03T13:50:41.147Z,36.42
2022-08-03T13:53:20.489Z,36.56
2022-08-03T13:55:48.586Z,36.52
2022-08-03T13:58:21.441Z,36.47
2022-08-03T14:00:49.281Z,36.17
2022-08-03T14:03:17.820Z,36.41
2022-08-03T14:05:45.465Z,36.72
2022-08-03T14:08:13.188Z,36.89
2022-08-03T14:10:43.426Z,36.94
2022-08-03T14:13:17.800Z,37.22
2022-08-03T14:15:51.216Z,36.90
2022-08-03T14:18:28.855Z,36.77
2022-08-03T14:21:06.250Z,36.99
2022-08-03T14:23:37.698Z,36.75
2022-08-03T14:26:09.543Z,37.16
2022-08-03T14:28:37.099Z,37.11
2022-08-03T14:31:08.432Z,36.98
2022-08-03T14:33:53.645Z,36.47
2022-08-03T14:36:21.419Z,36.51
2022-08-03T14:38:49.617Z,36.74
2022-08-03T14:41:20.230Z,36.90
2022-08-03T14:44:00.519Z,36.92
2022-08-03T14:46:31.445Z,36.52
2022-08-03T14:50:28.542Z,37.02
2022-08-03T14:51:51.364Z,37.18
2022-08-03T14:54:23.174Z,37.44
2022-08-03T14:56:52.088Z,37.50
2022-08-03T14:59:21.073Z,37.31
2022-08-03T15:02:02.256Z,36.87
2022-08-03T15:04:32.959Z,36.48
2022-08-03T15:07:01.295Z,36.28
2022-08-03T15:09:30.241Z,36.74
2022-08-03T15:12:00.149Z,36.55
2022-08-03T15:14:33.331Z,36.46
2022-08-03T15:17:03.170Z,36.63
2022-08-03T15:20:01.297Z,36.78
2022-08-03T15:22:25.287Z,36.74
2022-08-03T15:25:04.280Z,36.44
2022-08-03T15:28:03.887Z,36.28
2022-08-03T15:30:36.080Z,36.35
2022-08-03T15:33:05.657Z,36.24
2022-08-03T15:35:34.101Z,36.16
2022-08-03T15:38:06.051Z,36.30
2022-08-03T15:40:37.823Z,36.21
2022-08-03T15:43:05.896Z,36.54
2022-08-03T15:45:36.268Z,36.43
2022-08-03T15:48:06.126Z,36.43
2022-08-03T15:50:34.341Z,36.47
2022-08-03T15:53:02.172Z,36.60
2022-08-03T15:55:31.661Z,36.76
2022-08-03T15:59:04.204Z,36.82
2022-08-03T16:00:47.669Z,36.87
2022-08-03T16:03:16.454Z,36.66
2022-08-03T16:05:44.387Z,36.64
2022-08-03T16:08:13.981Z,36.75
2022-08-03T16:10:42.904Z,36.46
2022-08-03T16:13:11.744Z,36.42
2022-08-03T16:15:39.666Z,36.33
2022-08-03T16:18:08.027Z,36.19
2022-08-03T16:20:36.053Z,36.11
2022-08-03T16:23:10.608Z,36.07
2022-08-03T16:25:42.071Z,36.05
2022-08-03T16:28:14.495Z,36.02
2022-08-03T16:30:45.071Z,36.13
2022-08-03T16:33:17.395Z,36.22
2022-08-03T16:35:49.607Z,36.01
2022-08-03T16:38:19.447Z,35.96
2022-08-03T16:40:52.213Z,36.05
2022-08-03T16:43:24.886Z,35.99
2022-08-03T16:45:53.620Z,36.13
2022-08-03T16:48:21.990Z,36.07
2022-08-03T16:50:50.120Z,35.89
2022-08-03T16:53:51.715Z,35.90
2022-08-03T16:56:10.121Z,35.83
2022-08-03T16:58:42.145Z,35.73
2022-08-03T17:01:22.230Z,35.66
2022-08-03T17:04:01.990Z,35.73
2022-08-03T17:06:38.204Z,35.50
2022-08-03T17:09:18.194Z,35.71
2022-08-03T17:11:49.907Z,35.47
2022-08-03T17:14:22.964Z,35.51
2022-08-03T17:17:01.460Z,35.40
2022-08-03T17:19:32.341Z,35.45
2022-08-03T17:22:03.963Z,35.40
2022-08-03T17:24:35.318Z,35.31
2022-08-03T17:28:41.934Z,35.26
2022-08-03T17:30:08.016Z,35.29
2022-08-03T17:32:42.290Z,35.28
2022-08-03T17:35:11.365Z,35.16
2022-08-03T17:37:57.929Z,35.13
2022-08-03T17:40:32.090Z,34.97
2022-08-03T17:43:01.009Z,34.81
2022-08-03T17:45:52.301Z,34.89
2022-08-03T17:48:18.586Z,34.74
2022-08-03T17:50:56.355Z,34.76
2022-08-03T17:53:28.885Z,34.74
2022-08-03T17:56:42.601Z,34.36
2022-08-03T17:59:16.730Z,34.35
2022-08-03T18:02:30.289Z,34.19
2022-08-03T18:05:16.277Z,34.22
2022-08-03T18:07:59.512Z,34.17
2022-08-03T18:10:36.355Z,33.62
2022-08-03T18:13:24.826Z,32.99
2022-08-03T18:16:04.470Z,32.89
2022-08-03T18:18:38.651Z,32.73
2022-08-03T18:21:16.888Z,32.53
2022-08-03T18:23:50.101Z,32.55
2022-08-03T18:26:20.558Z,32.55
2022-08-03T18:28:53.056Z,32.20
2022-08-03T18:31:59.982Z,32.03
2022-08-03T18:34:16.367Z,32.19
2022-08-03T18:36:49.807Z,31.66
2022-08-03T18:39:19.560Z,31.46
2022-08-03T18:41:49.323Z,31.17
2022-08-03T18:44:37.548Z,30.91
2022-08-03T18:47:51.110Z,30.52
2022-08-03T18:50:39.491Z,30.62
2022-08-03T18:54:03.365Z,31.06
2022-08-03T18:56:37.926Z,31.01
2022-08-03T18:59:12.219Z,30.79
2022-08-03T19:01:59.621Z,31.03
2022-08-03T19:04:32.623Z,30.97
2022-08-03T19:07:08.193Z,30.91
2022-08-03T19:09:56.841Z,30.85
2022-08-03T19:12:39.845Z,30.61
2022-08-03T19:15:12.754Z,30.44
2022-08-03T19:17:53.716Z,30.43
2022-08-03T19:20:25.798Z,30.29
2022-08-03T19:22:56.101Z,30.32
2022-08-03T19:25:35.049Z,30.34
2022-08-03T19:28:06.010Z,30.41
2022-08-03T19:30:38.943Z,30.02
2022-08-03T19:33:12.301Z,30.16
2022-08-03T19:35:52.102Z,29.76
2022-08-03T19:38:28.428Z,29.64
2022-08-03T19:41:04.437Z,29.74
2022-08-03T19:43:49.338Z,29.78
2022-08-03T19:46:27.730Z,29.72
2022-08-03T19:49:14.451Z,29.75
2022-08-03T19:51:58.465Z,29.74
2022-08-03T19:54:36.858Z,29.41
2022-08-03T19:57:19.826Z,29.30
2022-08-03T19:59:51.561Z,29.52
2022-08-03T20:02:21.262Z,29.20
2022-08-03T20:04:57.570Z,29.15
2022-08-03T20:07:31.055Z,29.17
2022-08-03T20:10:03.090Z,29.18
2022-08-03T20:12:39.232Z,29.30
2022-08-03T20:15:11.120Z,29.24
2022-08-03T20:17:57.160Z,29.38
2022-08-03T20:20:39.568Z,29.42
2022-08-03T20:23:12.994Z,29.54
2022-08-03T20:25:58.391Z,29.49
2022-08-03T20:28:49.639Z,29.02
2022-08-03T20:31:32.093Z,28.40
2022-08-03T20:34:10.723Z,28.21
2022-08-03T20:36:39.887Z,28.48
2022-08-03T20:39:09.197Z,28.40
2022-08-03T20:41:38.635Z,28.18
2022-08-03T20:44:08.349Z,27.75
2022-08-03T20:46:51.666Z,28.21
2022-08-03T20:49:26.188Z,28.42
2022-08-03T20:51:54.761Z,28.39
2022-08-03T20:54:30.971Z,28.29
2022-08-03T20:59:51.078Z,28.33
2022-08-03T21:02:29.882Z,28.31
2022-08-03T21:05:03.471Z,28.28
2022-08-03T21:08:06.291Z,27.95
2022-08-03T21:10:41.965Z,27.95
2022-08-03T21:13:13.764Z,28.40
2022-08-03T21:13:18.180Z,27.93
2022-08-03T21:16:06.736Z,27.96
2022-08-03T21:18:45.043Z,28.03
2022-08-03T21:21:15.828Z,27.76
2022-08-03T21:23:48.619Z,27.61
2022-08-03T21:26:25.341Z,27.72
2022-08-03T21:28:56.309Z,27.82
2022-08-03T21:31:26.487Z,27.69
2022-08-03T21:33:58.844Z,27.93
2022-08-03T21:36:29.319Z,27.93
2022-08-03T21:38:59.041Z,27.74
2022-08-03T21:41:29.805Z,27.79
2022-08-03T21:43:59.691Z,27.80
2022-08-03T21:46:30.948Z,27.74
2022-08-03T21:50:07.141Z,27.77
2022-08-03T21:51:50.659Z,27.42
2022-08-03T21:54:21.798Z,27.44
2022-08-03T21:56:51.227Z,27.40
2022-08-03T21:59:20.561Z,27.81
2022-08-03T22:01:51.410Z,27.57
2022-08-03T22:04:50.410Z,27.47
2022-08-03T22:07:14.684Z,27.39
2022-08-03T22:09:51.029Z,27.70
2022-08-03T22:12:26.201Z,27.25
2022-08-03T22:15:01.099Z,27.52
2022-08-03T22:17:55.146Z,27.19
2022-08-03T22:20:29.311Z,27.18
2022-08-03T22:23:05.946Z,26.91
2022-08-03T22:25:40.002Z,27.16
2022-08-03T22:28:12.065Z,27.02
2022-08-03T22:30:43.247Z,26.87
2022-08-03T22:33:17.301Z,27.15
2022-08-03T22:35:51.376Z,27.12
2022-08-03T22:38:28.076Z,27.23
2022-08-03T22:40:59.748Z,26.63
2022-08-03T22:43:29.232Z,26.87
2022-08-03T22:46:09.616Z,26.46
2022-08-03T22:48:42.335Z,26.38
2022-08-03T22:51:20.605Z,26.17
2022-08-03T22:53:51.311Z,26.26
2022-08-03T22:56:22.875Z,26.53
2022-08-03T22:58:52.720Z,26.27
2022-08-03T23:01:27.116Z,26.55
2022-08-03T23:04:02.288Z,26.27
2022-08-03T23:06:39.318Z,25.99
2022-08-03T23:09:14.355Z,26.05
2022-08-03T23:11:46.372Z,25.79
2022-08-03T23:14:19.843Z,25.97
2022-08-03T23:16:54.612Z,26.06
2022-08-03T23:19:27.784Z,26.31
2022-08-03T23:22:05.798Z,26.02
2022-08-03T23:24:36.739Z,25.96
2022-08-03T23:27:08.594Z,25.87
2022-08-03T23:29:40.643Z,25.78
2022-08-03T23:32:14.296Z,25.45
2022-08-03T23:35:04.852Z,25.53
2022-08-03T23:38:07.244Z,25.17
2022-08-03T23:40:31.761Z,25.20
2022-08-03T23:43:03.774Z,25.22
2022-08-03T23:45:36.741Z,25.26
2022-08-03T23:48:08.883Z,25.26
2022-08-03T23:50:46.383Z,24.95
2022-08-03T23:53:26.963Z,24.93
2022-08-03T23:56:25.252Z,24.95
2022-08-03T23:59:01.859Z,24.98
